Time;durP1;ratioP1;P1;durP2;ratioP2;P2;SDS_P1;SDS_P2;PMS_P1;PMS_P2;Temp;Humidity;BMP_temperature;BMP_pressure;BME280_temperature;BME280_humidity;BME280_pressure;Samples;Min_cycle;Max_cycle;Signal;HPM_P1;HPM_P2
2023/10/06 00:00:40;;;;;;;;;;;14.10;99.90;;;;;;5062923;28;19967;-79
2023/10/06 00:03:06;;;;;;;;;;;14.10;99.90;;;;;;5067109;28;19917;-80
2023/10/06 00:05:32;;;;;;;;;;;14.00;99.90;;;;;;5058785;28;20022;-79
2023/10/06 00:07:58;;;;;;;;;;;14.10;99.90;;;;;;5067693;28;19921;-79
2023/10/06 00:10:27;;;;;;;;;;;14.00;99.90;;;;;;5070154;28;19999;-79
2023/10/06 00:12:59;;;;;;;;;;;14.10;99.90;;;;;;5070024;28;19925;-81
2023/10/06 00:15:40;;;;;;;;;;;14.00;99.90;;;;;;5071738;28;19928;-80
2023/10/06 00:18:12;;;;;;;;;;;14.00;99.90;;;;;;5051652;28;20005;-79
2023/10/06 00:20:42;;;;;;;;;;;14.00;99.90;;;;;;5066997;28;19920;-80
2023/10/06 00:23:14;;;;;;;;;;;14.00;99.90;;;;;;5063107;28;19933;-79
2023/10/06 00:25:43;;;;;;;;;;;14.10;99.90;;;;;;5048347;28;19921;-80
2023/10/06 00:28:19;;;;;;;;;;;14.00;99.90;;;;;;5066236;28;19921;-79
2023/10/06 00:30:49;;;;;;;;;;;14.10;99.90;;;;;;5058416;28;19921;-78
2023/10/06 00:33:15;;;;;;;;;;;14.00;99.90;;;;;;5064801;28;19936;-79
2023/10/06 00:35:41;;;;;;;;;;;14.00;99.90;;;;;;5068035;28;19931;-79
2023/10/06 00:38:16;;;;;;;;;;;14.00;99.90;;;;;;5066417;28;19947;-80
2023/10/06 00:40:51;;;;;;;;;;;14.00;99.90;;;;;;5071455;28;19920;-79
2023/10/06 00:43:34;;;;;;;;;;;14.00;99.90;;;;;;5068991;28;19928;-79
2023/10/06 00:46:07;;;;;;;;;;;14.00;99.90;;;;;;5033711;28;19921;-80
2023/10/06 00:48:34;;;;;;;;;;;14.00;99.90;;;;;;5065243;28;19921;-79
2023/10/06 00:51:02;;;;;;;;;;;14.00;99.90;;;;;;5066466;28;19947;-78
2023/10/06 00:53:33;;;;;;;;;;;14.00;99.90;;;;;;5052382;28;19925;-79
2023/10/06 00:56:04;;;;;;;;;;;14.00;99.90;;;;;;5054495;28;19921;-80
2023/10/06 00:58:34;;;;;;;;;;;14.00;99.90;;;;;;5072301;28;19971;-79
2023/10/06 01:01:00;;;;;;;;;;;14.00;99.90;;;;;;5070914;28;19920;-79
2023/10/06 01:03:26;;;;;;;;;;;14.00;99.90;;;;;;5072775;28;19947;-81
2023/10/06 01:05:57;;;;;;;;;;;14.00;99.90;;;;;;5069987;28;19920;-78
2023/10/06 01:08:28;;;;;;;;;;;14.10;99.90;;;;;;5070964;28;20005;-79
2023/10/06 01:11:02;;;;;;;;;;;14.10;99.90;;;;;;5070110;28;19920;-80
2023/10/06 01:13:27;;;;;;;;;;;14.10;99.90;;;;;;5061487;28;19925;-80
2023/10/06 01:15:56;;;;;;;;;;;14.00;99.90;;;;;;5056733;28;20002;-80
2023/10/06 01:18:25;;;;;;;;;;;14.00;99.90;;;;;;5061001;28;19920;-81
2023/10/06 01:20:51;;;;;;;;;;;14.00;99.90;;;;;;5057945;28;19921;-80
2023/10/06 01:23:21;;;;;;;;;;;14.00;99.90;;;;;;5059283;28;19928;-79
2023/10/06 01:25:50;;;;;;;;;;;14.00;99.90;;;;;;5057598;28;19947;-81
2023/10/06 01:28:16;;;;;;;;;;;14.00;99.90;;;;;;5057114;28;20118;-80
2023/10/06 01:30:41;;;;;;;;;;;14.00;99.90;;;;;;5061970;28;20035;-79
2023/10/06 01:33:07;;;;;;;;;;;14.00;99.90;;;;;;5062023;28;19927;-80
2023/10/06 01:35:33;;;;;;;;;;;14.00;99.90;;;;;;5056166;28;19943;-80
2023/10/06 01:38:00;;;;;;;;;;;14.00;99.90;;;;;;5060485;28;19921;-80
2023/10/06 01:42:55;;;;;;;;;;;14.10;99.90;;;;;;5058991;28;20059;-80
2023/10/06 01:45:23;;;;;;;;;;;14.10;99.90;;;;;;5049059;28;19978;-79
2023/10/06 01:47:55;;;;;;;;;;;14.00;99.90;;;;;;5057796;28;19925;-79
2023/10/06 01:50:26;;;;;;;;;;;14.10;99.90;;;;;;5043135;28;19921;-80
2023/10/06 01:52:58;;;;;;;;;;;14.00;99.90;;;;;;5042779;28;19932;-80
2023/10/06 01:55:27;;;;;;;;;;;14.10;99.90;;;;;;5057224;28;19940;-79
2023/10/06 01:57:54;;;;;;;;;;;14.10;99.90;;;;;;5060575;28;19920;-81
2023/10/06 02:00:31;;;;;;;;;;;14.10;99.90;;;;;;5059703;28;20405;-80
2023/10/06 02:02:56;;;;;;;;;;;14.10;99.90;;;;;;5058134;28;19928;-80
2023/10/06 02:05:22;;;;;;;;;;;14.10;99.90;;;;;;5053405;28;19921;-80
2023/10/06 02:07:47;;;;;;;;;;;14.10;99.90;;;;;;5060444;28;20309;-79
2023/10/06 02:10:15;;;;;;;;;;;14.10;99.90;;;;;;5044187;28;19921;-80
2023/10/06 02:12:41;;;;;;;;;;;14.10;99.90;;;;;;5054601;28;19921;-78
2023/10/06 02:15:10;;;;;;;;;;;14.20;99.90;;;;;;5064380;28;19939;-79
2023/10/06 02:17:36;;;;;;;;;;;14.20;99.90;;;;;;5044276;28;19927;-82
2023/10/06 02:20:02;;;;;;;;;;;14.10;99.90;;;;;;5061649;28;19999;-80
2023/10/06 02:22:31;;;;;;;;;;;14.20;99.90;;;;;;5059112;28;19925;-78
2023/10/06 02:24:56;;;;;;;;;;;14.10;99.90;;;;;;5057762;28;20007;-79
2023/10/06 02:27:22;;;;;;;;;;;14.20;99.90;;;;;;5025807;28;19920;-80
2023/10/06 02:29:49;;;;;;;;;;;14.20;99.90;;;;;;5055926;28;20366;-79
2023/10/06 02:32:16;;;;;;;;;;;14.20;99.90;;;;;;5057164;28;19970;-79
2023/10/06 02:34:44;;;;;;;;;;;14.20;99.90;;;;;;5055621;28;19920;-79
2023/10/06 02:37:10;;;;;;;;;;;14.20;99.90;;;;;;5056637;28;20359;-79
2023/10/06 02:39:43;;;;;;;;;;;14.20;99.90;;;;;;5057788;28;20003;-79
2023/10/06 02:42:13;;;;;;;;;;;14.20;99.90;;;;;;5058359;28;19924;-79
2023/10/06 02:44:40;;;;;;;;;;;14.20;99.90;;;;;;5036162;28;19944;-80
2023/10/06 02:47:09;;;;;;;;;;;14.20;99.90;;;;;;5059626;28;20323;-79
2023/10/06 02:49:40;;;;;;;;;;;14.20;99.90;;;;;;5059578;28;19924;-80
2023/10/06 02:52:22;;;;;;;;;;;14.20;99.90;;;;;;5057672;28;19921;-81
2023/10/06 02:55:05;;;;;;;;;;;14.20;99.90;;;;;;5060177;28;19924;-80
2023/10/06 02:57:43;;;;;;;;;;;14.20;99.90;;;;;;5066259;28;19955;-78
2023/10/06 03:02:57;;;;;;;;;;;14.20;99.90;;;;;;5057819;28;20015;-78
2023/10/06 03:05:33;;;;;;;;;;;14.20;99.90;;;;;;5059267;28;20291;-79
2023/10/06 03:08:01;;;;;;;;;;;14.20;99.90;;;;;;5058626;28;20051;-80
2023/10/06 03:10:30;;;;;;;;;;;14.20;99.90;;;;;;5066099;28;20832;-81
2023/10/06 03:13:03;;;;;;;;;;;14.20;99.90;;;;;;5056660;28;20392;-77
2023/10/06 03:15:35;;;;;;;;;;;14.20;99.90;;;;;;5058194;28;19960;-80
2023/10/06 03:18:00;;;;;;;;;;;14.20;99.90;;;;;;5056983;28;20290;-80
2023/10/06 03:20:30;;;;;;;;;;;14.10;99.90;;;;;;5055532;28;19928;-80
2023/10/06 03:22:56;;;;;;;;;;;14.20;99.90;;;;;;5056216;28;19921;-79
2023/10/06 03:25:22;;;;;;;;;;;14.20;99.90;;;;;;5056719;28;19920;-79
2023/10/06 03:27:54;;;;;;;;;;;14.20;99.90;;;;;;5055176;28;20011;-80
2023/10/06 03:30:33;;;;;;;;;;;14.50;99.90;;;;;;5045072;28;20405;-78
2023/10/06 03:33:03;;;;;;;;;;;14.20;99.90;;;;;;5055574;28;20000;-79
2023/10/06 03:35:45;;;;;;;;;;;14.20;99.90;;;;;;5054361;28;20011;-79
2023/10/06 03:40:45;;;;;;;;;;;14.20;99.90;;;;;;5050517;28;19983;-79
2023/10/06 03:43:13;;;;;;;;;;;14.20;99.90;;;;;;5055184;28;19921;-79
2023/10/06 03:45:40;;;;;;;;;;;14.10;99.90;;;;;;5054819;28;19952;-78
2023/10/06 03:48:09;;;;;;;;;;;14.10;99.90;;;;;;5048143;28;19964;-79
2023/10/06 03:50:39;;;;;;;;;;;14.10;99.90;;;;;;5055753;28;19921;-80
2023/10/06 03:53:07;;;;;;;;;;;14.10;99.90;;;;;;5056697;28;19921;-80
2023/10/06 03:55:35;;;;;;;;;;;14.10;99.90;;;;;;5058869;28;19952;-79
2023/10/06 03:58:00;;;;;;;;;;;14.10;99.90;;;;;;5057242;28;19920;-79
2023/10/06 04:00:27;;;;;;;;;;;14.10;99.90;;;;;;5054941;28;20007;-80
2023/10/06 04:02:52;;;;;;;;;;;14.10;99.90;;;;;;5057500;28;19927;-79
2023/10/06 04:05:18;;;;;;;;;;;14.10;99.90;;;;;;5053853;28;20016;-78
2023/10/06 04:07:45;;;;;;;;;;;14.10;99.90;;;;;;5066352;28;20378;-79
2023/10/06 04:10:14;;;;;;;;;;;14.10;99.90;;;;;;5057810;28;19972;-80
2023/10/06 04:12:40;;;;;;;;;;;14.10;99.90;;;;;;5039845;28;19921;-80
2023/10/06 04:15:05;;;;;;;;;;;14.10;99.90;;;;;;5053058;28;19936;-79
2023/10/06 04:17:31;;;;;;;;;;;14.10;99.90;;;;;;5053219;28;19928;-79
2023/10/06 04:19:56;;;;;;;;;;;14.10;99.90;;;;;;5041855;28;19944;-81
2023/10/06 04:22:22;;;;;;;;;;;14.10;99.90;;;;;;5064237;28;19927;-79
2023/10/06 04:24:48;;;;;;;;;;;14.10;99.90;;;;;;5061664;28;19927;-79
2023/10/06 04:27:13;;;;;;;;;;;14.10;99.90;;;;;;5055184;28;19921;-79
2023/10/06 04:29:40;;;;;;;;;;;14.10;99.90;;;;;;5042353;28;19920;-78
2023/10/06 04:32:13;;;;;;;;;;;14.10;99.90;;;;;;5040609;28;20007;-79
2023/10/06 04:34:39;;;;;;;;;;;14.10;99.90;;;;;;5049959;28;20632;-78
2023/10/06 04:37:07;;;;;;;;;;;14.10;99.90;;;;;;5056105;28;19921;-78
2023/10/06 04:39:33;;;;;;;;;;;14.10;99.90;;;;;;5052000;28;19921;-79
2023/10/06 04:42:00;;;;;;;;;;;14.10;99.90;;;;;;5055086;28;19966;-78
2023/10/06 04:44:25;;;;;;;;;;;14.10;99.90;;;;;;5054720;28;19920;-80
2023/10/06 04:46:52;;;;;;;;;;;14.10;99.90;;;;;;5056008;28;19946;-77
2023/10/06 04:49:17;;;;;;;;;;;14.10;99.90;;;;;;5058836;28;19959;-80
2023/10/06 04:51:43;;;;;;;;;;;14.70;99.90;;;;;;5054794;28;19943;-79
2023/10/06 04:54:08;;;;;;;;;;;14.10;99.90;;;;;;5056036;28;19921;-79
2023/10/06 04:56:34;;;;;;;;;;;14.00;99.90;;;;;;5060923;28;20004;-79
2023/10/06 04:59:01;;;;;;;;;;;14.10;99.90;;;;;;5042660;28;19921;-79
2023/10/06 05:01:30;;;;;;;;;;;14.10;99.90;;;;;;5060366;28;19955;-80
2023/10/06 05:03:56;;;;;;;;;;;14.10;99.90;;;;;;5046601;28;20012;-79
2023/10/06 05:06:21;;;;;;;;;;;14.10;99.90;;;;;;5064036;28;19921;-78
2023/10/06 05:08:47;;;;;;;;;;;14.10;99.90;;;;;;5062841;28;19921;-79
2023/10/06 05:11:17;;;;;;;;;;;14.00;99.90;;;;;;5065479;28;19947;-79
2023/10/06 05:13:43;;;;;;;;;;;14.10;99.90;;;;;;5047033;28;19925;-82
2023/10/06 05:16:11;;;;;;;;;;;14.10;99.90;;;;;;5064255;28;19952;-79
2023/10/06 05:18:38;;;;;;;;;;;14.00;99.90;;;;;;5066769;28;20508;-80
2023/10/06 05:21:06;;;;;;;;;;;14.10;99.90;;;;;;5062148;28;19956;-79
2023/10/06 05:23:34;;;;;;;;;;;14.10;99.90;;;;;;5056353;28;20275;-80
2023/10/06 05:26:02;;;;;;;;;;;13.70;99.90;;;;;;5056455;28;20012;-80
2023/10/06 05:28:29;;;;;;;;;;;14.10;99.90;;;;;;5065143;28;19921;-80
2023/10/06 05:30:55;;;;;;;;;;;14.10;99.90;;;;;;5063576;28;19928;-81
2023/10/06 05:33:21;;;;;;;;;;;14.10;99.90;;;;;;5065136;28;19929;-80
2023/10/06 05:35:47;;;;;;;;;;;14.10;99.90;;;;;;5061235;28;19951;-79
2023/10/06 05:38:15;;;;;;;;;;;14.10;99.90;;;;;;5059603;28;20324;-80
2023/10/06 05:40:44;;;;;;;;;;;14.10;99.90;;;;;;5060791;28;19936;-79
2023/10/06 05:43:15;;;;;;;;;;;14.10;99.90;;;;;;5062101;28;19932;-80
2023/10/06 05:45:44;;;;;;;;;;;14.10;99.90;;;;;;5064047;28;19959;-80
2023/10/06 05:48:15;;;;;;;;;;;14.10;99.90;;;;;;5064959;28;19947;-80
2023/10/06 05:50:42;;;;;;;;;;;14.10;99.90;;;;;;5067107;28;20379;-80
2023/10/06 05:53:09;;;;;;;;;;;14.10;99.90;;;;;;5063556;28;19978;-80
2023/10/06 05:55:35;;;;;;;;;;;14.10;99.90;;;;;;5057525;28;19928;-80
2023/10/06 05:58:03;;;;;;;;;;;14.00;99.90;;;;;;5063273;28;19921;-79
2023/10/06 06:00:33;;;;;;;;;;;14.00;99.90;;;;;;5067550;28;20281;-81
2023/10/06 06:03:10;;;;;;;;;;;14.00;99.90;;;;;;5058050;28;19924;-80
2023/10/06 06:05:38;;;;;;;;;;;14.00;99.90;;;;;;5061706;28;19927;-80
2023/10/06 06:08:08;;;;;;;;;;;14.00;99.90;;;;;;5060643;28;19928;-80
2023/10/06 06:10:37;;;;;;;;;;;14.10;99.90;;;;;;5057578;28;20313;-79
2023/10/06 06:13:03;;;;;;;;;;;14.10;99.90;;;;;;5054275;28;19920;-79
2023/10/06 06:15:29;;;;;;;;;;;14.10;99.90;;;;;;5057053;28;20448;-80
2023/10/06 06:17:54;;;;;;;;;;;14.10;99.90;;;;;;5060374;28;19921;-80
2023/10/06 06:20:22;;;;;;;;;;;14.10;99.90;;;;;;5058391;28;19921;-79
2023/10/06 06:22:49;;;;;;;;;;;14.10;99.90;;;;;;5058529;28;20011;-80
2023/10/06 06:25:15;;;;;;;;;;;14.10;99.90;;;;;;5061659;28;19921;-81
2023/10/06 06:27:42;;;;;;;;;;;14.10;99.90;;;;;;5067466;28;19952;-80
2023/10/06 06:30:08;;;;;;;;;;;14.20;99.90;;;;;;5054660;28;19908;-79
2023/10/06 06:32:34;;;;;;;;;;;14.20;99.90;;;;;;5062130;28;19942;-80
2023/10/06 06:35:00;;;;;;;;;;;14.20;99.90;;;;;;5060000;28;20274;-82
2023/10/06 06:37:27;;;;;;;;;;;14.20;99.90;;;;;;5053617;28;19921;-81
2023/10/06 06:39:53;;;;;;;;;;;14.20;99.90;;;;;;5058446;28;19944;-81
2023/10/06 06:42:19;;;;;;;;;;;14.20;99.90;;;;;;5059235;28;20375;-81
2023/10/06 06:44:47;;;;;;;;;;;14.30;99.90;;;;;;5059694;28;19916;-81
2023/10/06 06:47:16;;;;;;;;;;;14.30;99.90;;;;;;5058166;28;20363;-82
2023/10/06 06:49:43;;;;;;;;;;;14.20;99.90;;;;;;5048614;28;19924;-82
2023/10/06 06:52:10;;;;;;;;;;;14.30;99.90;;;;;;5037293;28;19927;-80
2023/10/06 06:54:37;;;;;;;;;;;14.30;99.90;;;;;;5058105;28;19932;-81
2023/10/06 06:57:02;;;;;;;;;;;14.30;99.90;;;;;;5057807;28;20294;-82
2023/10/06 06:59:30;;;;;;;;;;;14.30;99.90;;;;;;5047998;28;19917;-82
2023/10/06 07:01:58;;;;;;;;;;;14.40;99.90;;;;;;5057715;28;19920;-81
2023/10/06 07:04:26;;;;;;;;;;;14.40;99.90;;;;;;5060170;28;19921;-81
2023/10/06 07:06:52;;;;;;;;;;;14.40;99.90;;;;;;5042587;28;19921;-81
2023/10/06 07:09:18;;;;;;;;;;;14.40;99.90;;;;;;5059127;28;19920;-81
2023/10/06 07:11:47;;;;;;;;;;;14.50;99.90;;;;;;5040299;28;20303;-81
2023/10/06 07:14:14;;;;;;;;;;;14.50;99.90;;;;;;5060063;28;19921;-82
2023/10/06 07:16:42;;;;;;;;;;;14.60;99.90;;;;;;5055404;28;19966;-81
2023/10/06 07:19:07;;;;;;;;;;;14.60;99.90;;;;;;5056930;28;19947;-80
2023/10/06 07:21:33;;;;;;;;;;;14.60;99.90;;;;;;5059433;28;20518;-85
2023/10/06 07:23:59;;;;;;;;;;;14.60;99.90;;;;;;5058203;28;19975;-85
2023/10/06 07:26:25;;;;;;;;;;;14.60;99.90;;;;;;5037124;28;20448;-81
2023/10/06 07:28:55;;;;;;;;;;;14.60;99.90;;;;;;5057009;28;19943;-82
2023/10/06 07:31:21;;;;;;;;;;;14.60;99.90;;;;;;5061699;28;19920;-82
2023/10/06 07:33:51;;;;;;;;;;;14.70;99.90;;;;;;5052820;28;19964;-84
2023/10/06 07:36:20;;;;;;;;;;;14.70;99.90;;;;;;5056650;28;19947;-83
2023/10/06 07:38:48;;;;;;;;;;;14.80;99.90;;;;;;5043417;28;19921;-83
2023/10/06 07:41:17;;;;;;;;;;;14.80;99.90;;;;;;5061628;28;20347;-83
2023/10/06 07:43:46;;;;;;;;;;;14.80;99.90;;;;;;5059006;28;19924;-82
2023/10/06 07:46:13;;;;;;;;;;;14.90;99.90;;;;;;5057700;28;19928;-82
2023/10/06 07:48:39;;;;;;;;;;;14.90;99.90;;;;;;5058675;28;19947;-82
2023/10/06 07:51:08;;;;;;;;;;;14.90;99.90;;;;;;5060392;28;20259;-82
2023/10/06 07:53:35;;;;;;;;;;;14.70;99.90;;;;;;5041220;28;19974;-82
2023/10/06 07:56:06;;;;;;;;;;;15.60;99.90;;;;;;5057093;28;19925;-82
2023/10/06 07:58:38;;;;;;;;;;;14.80;99.90;;;;;;5047411;28;19920;-83
2023/10/06 08:01:12;;;;;;;;;;;14.90;99.90;;;;;;5059350;28;19924;-82
2023/10/06 08:03:39;;;;;;;;;;;14.80;99.90;;;;;;5058789;28;19921;-82
2023/10/06 08:06:05;;;;;;;;;;;14.90;99.90;;;;;;5054011;28;20321;-83
2023/10/06 08:08:34;;;;;;;;;;;14.90;99.90;;;;;;5053240;28;19925;-82
2023/10/06 08:11:01;;;;;;;;;;;14.90;99.90;;;;;;5054771;28;19920;-82
2023/10/06 08:13:31;;;;;;;;;;;14.90;99.90;;;;;;5053016;28;19931;-82
2023/10/06 08:15:57;;;;;;;;;;;15.00;99.90;;;;;;5054185;28;19921;-84
2023/10/06 08:18:22;;;;;;;;;;;15.00;99.90;;;;;;5053056;28;19999;-84
2023/10/06 08:20:48;;;;;;;;;;;15.00;99.90;;;;;;5050302;28;20377;-83
2023/10/06 08:23:15;;;;;;;;;;;15.10;99.90;;;;;;5051123;28;19925;-84
2023/10/06 08:25:49;;;;;;;;;;;15.10;99.90;;;;;;5056889;28;19929;-85
2023/10/06 08:28:15;;;;;;;;;;;15.20;99.90;;;;;;5053146;28;19968;-82
2023/10/06 08:30:40;;;;;;;;;;;15.30;99.90;;;;;;5057969;28;20367;-83
2023/10/06 08:33:09;;;;;;;;;;;15.30;99.90;;;;;;5059060;28;19920;-82
2023/10/06 08:35:36;;;;;;;;;;;15.40;99.90;;;;;;5060840;28;19921;-85
2023/10/06 08:38:02;;;;;;;;;;;15.40;99.90;;;;;;5060686;28;19971;-83
2023/10/06 08:40:29;;;;;;;;;;;15.40;99.90;;;;;;5061778;28;19931;-83
2023/10/06 08:42:56;;;;;;;;;;;15.40;99.90;;;;;;5052130;28;19925;-82
2023/10/06 08:45:21;;;;;;;;;;;15.50;99.90;;;;;;5038265;28;19968;-81
2023/10/06 08:47:58;;;;;;;;;;;15.90;99.90;;;;;;5054493;28;20379;-84
2023/10/06 08:50:27;;;;;;;;;;;15.60;99.90;;;;;;5052871;28;19921;-82
2023/10/06 08:52:54;;;;;;;;;;;15.70;99.90;;;;;;5070020;28;20326;-83
2023/10/06 08:55:20;;;;;;;;;;;15.70;99.90;;;;;;5069369;28;19913;-85
2023/10/06 08:57:50;;;;;;;;;;;15.80;99.90;;;;;;5070944;28;19921;-82
2023/10/06 09:00:16;;;;;;;;;;;15.90;99.90;;;;;;5060535;28;19928;-81
2023/10/06 09:02:44;;;;;;;;;;;15.90;99.90;;;;;;5079554;28;19921;-82
2023/10/06 09:05:13;;;;;;;;;;;16.00;99.90;;;;;;5080828;28;19915;-80
2023/10/06 09:07:56;;;;;;;;;;;16.10;99.90;;;;;;5078429;28;19921;-83
2023/10/06 09:10:22;;;;;;;;;;;16.10;99.90;;;;;;5078540;28;19955;-81
2023/10/06 09:13:07;;;;;;;;;;;16.10;99.90;;;;;;5079182;28;19921;-84
2023/10/06 09:15:36;;;;;;;;;;;16.20;99.90;;;;;;5078802;28;19927;-81
2023/10/06 09:18:23;;;;;;;;;;;16.20;99.90;;;;;;5078761;28;19952;-83
2023/10/06 09:20:50;;;;;;;;;;;16.30;99.90;;;;;;5076042;28;19985;-82
2023/10/06 09:23:31;;;;;;;;;;;16.20;99.90;;;;;;5065455;28;20298;-81
2023/10/06 09:25:57;;;;;;;;;;;16.30;99.90;;;;;;5045301;28;19931;-81
2023/10/06 09:28:23;;;;;;;;;;;16.40;99.90;;;;;;5054330;28;20321;-83
2023/10/06 09:31:02;;;;;;;;;;;16.50;99.90;;;;;;5041119;28;20020;-85
2023/10/06 09:33:29;;;;;;;;;;;16.50;99.90;;;;;;5043073;28;20263;-85
2023/10/06 09:36:01;;;;;;;;;;;16.50;99.90;;;;;;5060837;28;20275;-83
2023/10/06 09:38:26;;;;;;;;;;;16.60;99.90;;;;;;5055908;28;19932;-82
2023/10/06 09:40:52;;;;;;;;;;;16.70;99.90;;;;;;5037272;28;20374;-83
2023/10/06 09:43:19;;;;;;;;;;;16.80;99.90;;;;;;5055220;28;20370;-82
2023/10/06 09:45:47;;;;;;;;;;;16.80;99.90;;;;;;5054323;28;19921;-82
2023/10/06 09:48:15;;;;;;;;;;;16.90;99.90;;;;;;5043122;28;19921;-82
2023/10/06 09:50:42;;;;;;;;;;;17.00;99.90;;;;;;5042535;28;19928;-83
2023/10/06 09:53:10;;;;;;;;;;;17.10;99.90;;;;;;5059410;28;19927;-83
2023/10/06 09:55:36;;;;;;;;;;;17.10;99.90;;;;;;5059132;28;19951;-81
2023/10/06 09:58:05;;;;;;;;;;;17.10;99.90;;;;;;5059054;28;19925;-83
2023/10/06 10:00:32;;;;;;;;;;;17.10;99.90;;;;;;5062636;28;19947;-80
2023/10/06 10:03:00;;;;;;;;;;;17.20;99.90;;;;;;5061338;28;19960;-83
2023/10/06 10:05:27;;;;;;;;;;;17.30;99.90;;;;;;5061357;28;19920;-83
2023/10/06 10:07:54;;;;;;;;;;;17.60;99.90;;;;;;5060347;28;19924;-82
2023/10/06 10:10:27;;;;;;;;;;;17.60;99.90;;;;;;5063611;28;19916;-83
2023/10/06 10:13:00;;;;;;;;;;;17.10;99.90;;;;;;5061263;28;19921;-83
2023/10/06 10:15:37;;;;;;;;;;;17.50;99.90;;;;;;5057938;28;19928;-83
2023/10/06 10:18:04;;;;;;;;;;;17.50;99.90;;;;;;5061874;28;19935;-84
2023/10/06 10:20:32;;;;;;;;;;;17.60;99.90;;;;;;5057889;28;19990;-82
2023/10/06 10:22:59;;;;;;;;;;;17.70;99.90;;;;;;5045609;28;19925;-83
2023/10/06 10:25:24;;;;;;;;;;;17.80;99.90;;;;;;5044949;28;19928;-84
2023/10/06 10:28:09;;;;;;;;;;;17.90;99.90;;;;;;5058965;28;19932;-84
2023/10/06 10:30:47;;;;;;;;;;;17.90;99.90;;;;;;5042151;28;19940;-82
2023/10/06 10:33:19;;;;;;;;;;;18.00;99.90;;;;;;5061016;28;19920;-84
2023/10/06 10:36:03;;;;;;;;;;;18.10;99.90;;;;;;5063213;28;19952;-85
2023/10/06 10:38:31;;;;;;;;;;;18.10;99.90;;;;;;5037328;28;19924;-83
2023/10/06 10:40:58;;;;;;;;;;;18.10;99.90;;;;;;5060794;28;19931;-82
2023/10/06 10:43:24;;;;;;;;;;;18.10;99.90;;;;;;5045722;28;19944;-83
2023/10/06 10:45:54;;;;;;;;;;;18.10;99.90;;;;;;5065546;28;19924;-82
2023/10/06 10:48:22;;;;;;;;;;;18.10;99.90;;;;;;5066096;28;19932;-84
2023/10/06 10:51:00;;;;;;;;;;;18.10;99.90;;;;;;5064753;28;20344;-84
2023/10/06 10:53:34;;;;;;;;;;;18.10;99.90;;;;;;5046137;28;20362;-83
2023/10/06 10:56:01;;;;;;;;;;;18.20;99.90;;;;;;5063592;28;20011;-85
2023/10/06 10:58:45;;;;;;;;;;;18.30;99.90;;;;;;5056888;28;19920;-85
2023/10/06 11:01:27;;;;;;;;;;;18.30;99.90;;;;;;5062298;28;19928;-81
2023/10/06 11:07:09;;;;;;;;;;;19.00;99.90;;;;;;5058493;28;19932;-85
2023/10/06 11:09:41;;;;;;;;;;;19.60;99.90;;;;;;5067556;28;19925;-83
2023/10/06 11:12:13;;;;;;;;;;;19.90;99.90;;;;;;5065179;28;19929;-84
2023/10/06 11:14:41;;;;;;;;;;;20.10;99.90;;;;;;5067181;28;19927;-83
2023/10/06 11:17:07;;;;;;;;;;;20.00;99.90;;;;;;5064451;28;19939;-83
2023/10/06 11:19:34;;;;;;;;;;;20.10;99.90;;;;;;5067384;28;20488;-84
2023/10/06 11:22:13;;;;;;;;;;;20.10;99.90;;;;;;5066388;28;19920;-83
2023/10/06 11:24:44;;;;;;;;;;;20.00;99.90;;;;;;5057418;28;19959;-82
2023/10/06 11:27:21;;;;;;;;;;;20.00;99.90;;;;;;5064750;28;19963;-84
2023/10/06 11:29:47;;;;;;;;;;;19.90;99.90;;;;;;5062758;28;19927;-84
2023/10/06 11:32:13;;;;;;;;;;;20.00;99.90;;;;;;5066725;28;20011;-82
2023/10/06 11:34:42;;;;;;;;;;;20.20;99.90;;;;;;5062711;28;19928;-83
2023/10/06 11:37:13;;;;;;;;;;;20.30;99.90;;;;;;5064000;28;19920;-85
2023/10/06 11:39:39;;;;;;;;;;;20.30;99.90;;;;;;5067032;28;19927;-84
2023/10/06 11:42:23;;;;;;;;;;;20.30;99.90;;;;;;5067596;28;19956;-82
2023/10/06 11:44:53;;;;;;;;;;;20.20;99.90;;;;;;5065037;28;19920;-83
2023/10/06 11:47:21;;;;;;;;;;;20.10;99.90;;;;;;5066949;28;19924;-84
2023/10/06 11:49:56;;;;;;;;;;;20.20;99.90;;;;;;5069039;28;20181;-82
2023/10/06 11:52:22;;;;;;;;;;;20.10;99.90;;;;;;5068345;28;20027;-85
2023/10/06 11:54:49;;;;;;;;;;;20.10;99.90;;;;;;5065441;28;19947;-81
2023/10/06 11:57:15;;;;;;;;;;;20.00;99.90;;;;;;5065667;28;19920;-83
2023/10/06 11:59:50;;;;;;;;;;;20.00;99.90;;;;;;5065499;28;19940;-83
2023/10/06 12:02:16;;;;;;;;;;;20.00;99.90;;;;;;5066584;28;19927;-84
2023/10/06 12:04:42;;;;;;;;;;;20.00;99.90;;;;;;5069513;28;19959;-82
2023/10/06 12:07:30;;;;;;;;;;;20.20;99.90;;;;;;5067904;28;19925;-83
2023/10/06 12:10:03;;;;;;;;;;;20.40;99.90;;;;;;5053061;28;19976;-82
2023/10/06 12:12:29;;;;;;;;;;;20.80;99.90;;;;;;5062505;28;19928;-80
2023/10/06 12:14:56;;;;;;;;;;;20.90;99.90;;;;;;5062561;28;19959;-82
2023/10/06 12:17:23;;;;;;;;;;;21.00;99.90;;;;;;5049801;28;19921;-83
2023/10/06 12:19:49;;;;;;;;;;;20.90;99.90;;;;;;5064482;28;19964;-82
2023/10/06 12:22:14;;;;;;;;;;;20.70;99.90;;;;;;5065317;28;19928;-83
2023/10/06 12:24:40;;;;;;;;;;;20.60;99.90;;;;;;5057816;28;19917;-82
2023/10/06 12:27:06;;;;;;;;;;;20.70;99.90;;;;;;5065739;28;19920;-84
2023/10/06 12:29:31;;;;;;;;;;;20.70;99.90;;;;;;5066642;28;19932;-82
2023/10/06 12:31:57;;;;;;;;;;;20.70;99.90;;;;;;5048680;28;20468;-82
2023/10/06 12:34:23;;;;;;;;;;;20.50;99.90;;;;;;5066589;28;19920;-82
2023/10/06 12:36:52;;;;;;;;;;;20.40;99.90;;;;;;5049266;28;19932;-83
2023/10/06 12:39:33;;;;;;;;;;;20.40;99.90;;;;;;5065461;28;19979;-81
2023/10/06 12:41:59;;;;;;;;;;;20.30;99.90;;;;;;5048465;28;19948;-82
2023/10/06 12:44:28;;;;;;;;;;;20.20;99.90;;;;;;5067131;28;19920;-80
2023/10/06 12:47:03;;;;;;;;;;;20.00;99.90;;;;;;5069573;28;19921;-82
2023/10/06 12:49:30;;;;;;;;;;;20.00;99.90;;;;;;5070194;28;19920;-85
2023/10/06 12:51:56;;;;;;;;;;;19.90;99.90;;;;;;5073339;28;19984;-83
2023/10/06 12:54:25;;;;;;;;;;;19.80;99.90;;;;;;5071010;28;19921;-82
2023/10/06 12:56:51;;;;;;;;;;;19.70;99.90;;;;;;5061358;28;19909;-83
2023/10/06 12:59:17;;;;;;;;;;;19.60;99.90;;;;;;5072161;28;20000;-81
2023/10/06 13:01:42;;;;;;;;;;;19.50;99.90;;;;;;5073226;28;19936;-81
2023/10/06 13:04:08;;;;;;;;;;;19.60;99.90;;;;;;5064250;28;19929;-83
2023/10/06 13:06:35;;;;;;;;;;;19.40;99.90;;;;;;5072007;28;19908;-80
2023/10/06 13:09:03;;;;;;;;;;;19.30;99.90;;;;;;5058437;28;19971;-82
2023/10/06 13:11:29;;;;;;;;;;;19.30;99.90;;;;;;5074928;28;19972;-80
2023/10/06 13:13:54;;;;;;;;;;;19.10;99.90;;;;;;5075991;28;19920;-83
2023/10/06 13:16:20;;;;;;;;;;;19.10;99.90;;;;;;5075554;28;19909;-82
2023/10/06 13:18:46;;;;;;;;;;;19.00;99.90;;;;;;5074823;28;19921;-83
2023/10/06 13:21:11;;;;;;;;;;;19.00;99.90;;;;;;5074575;28;19921;-82
2023/10/06 13:23:38;;;;;;;;;;;19.00;99.90;;;;;;5074077;28;19932;-81
2023/10/06 13:26:04;;;;;;;;;;;19.00;99.90;;;;;;5071758;28;19921;-83
2023/10/06 13:28:31;;;;;;;;;;;19.00;99.90;;;;;;5071564;28;19924;-83
2023/10/06 13:30:57;;;;;;;;;;;19.00;99.90;;;;;;5071634;28;19920;-81
2023/10/06 13:33:25;;;;;;;;;;;19.00;99.90;;;;;;5068586;28;19983;-79
2023/10/06 13:35:51;;;;;;;;;;;19.10;99.90;;;;;;5067836;28;19920;-83
2023/10/06 13:38:17;;;;;;;;;;;19.20;99.90;;;;;;5065417;28;19928;-81
2023/10/06 13:40:46;;;;;;;;;;;19.20;99.90;;;;;;5065851;28;19925;-81
2023/10/06 13:43:12;;;;;;;;;;;19.20;99.90;;;;;;5066236;28;19920;-83
2023/10/06 13:45:48;;;;;;;;;;;19.10;99.90;;;;;;5058736;28;19925;-84
2023/10/06 13:48:16;;;;;;;;;;;19.10;99.90;;;;;;5058753;28;19975;-83
2023/10/06 13:50:41;;;;;;;;;;;19.10;99.90;;;;;;5064469;28;19921;-83
2023/10/06 13:53:08;;;;;;;;;;;19.00;99.90;;;;;;5064607;28;19947;-84
2023/10/06 13:55:34;;;;;;;;;;;19.00;99.90;;;;;;5046090;28;19916;-82
2023/10/06 13:58:04;;;;;;;;;;;18.90;99.90;;;;;;5043183;28;19920;-83
2023/10/06 14:00:40;;;;;;;;;;;18.80;99.90;;;;;;5062302;28;19920;-85
2023/10/06 14:03:07;;;;;;;;;;;18.80;99.90;;;;;;5045185;28;19916;-82
2023/10/06 14:05:33;;;;;;;;;;;18.70;99.90;;;;;;5062448;28;19920;-83
2023/10/06 14:08:04;;;;;;;;;;;18.70;99.90;;;;;;5064871;28;19924;-81
2023/10/06 14:10:37;;;;;;;;;;;18.70;99.90;;;;;;5045543;28;19931;-84
2023/10/06 14:13:11;;;;;;;;;;;18.70;99.90;;;;;;5043688;28;20014;-82
2023/10/06 14:15:50;;;;;;;;;;;18.60;99.90;;;;;;5043073;28;20337;-83
2023/10/06 14:18:16;;;;;;;;;;;19.50;99.90;;;;;;5049987;28;19921;-85
2023/10/06 14:23:39;;;;;;;;;;;18.60;99.90;;;;;;5065006;28;19920;-84
2023/10/06 14:26:10;;;;;;;;;;;18.60;99.90;;;;;;5068629;28;19920;-83
2023/10/06 14:28:36;;;;;;;;;;;18.60;99.90;;;;;;5046465;28;19955;-83
2023/10/06 14:33:57;;;;;;;;;;;18.50;99.90;;;;;;5064472;28;19975;-83
2023/10/06 14:36:25;;;;;;;;;;;18.50;99.90;;;;;;5063846;28;19921;-83
2023/10/06 14:47:06;;;;;;;;;;;18.30;99.90;;;;;;5060216;28;19976;-82
2023/10/06 14:49:39;;;;;;;;;;;18.50;99.90;;;;;;5070473;28;19969;-82